East Albany, Vermont
Current Conditions -  °F | °C
As of 5:35 AM on Thursday 23 Oct 2014 (Local Time) from KEFK Reporting Station
Overcast Overcast  
Wind Chill: 35°   Ceiling: 1700
Heat Index: 43°   Visibility: 10mi
Dew Point: 37°   Wind: 15mph
Humidity: 81%   Direction: 360°N
Pressure: 30.02"   Gusts: 22mph
Location:  44.8143°N, 72.284°W
Report Text: KEFK 230935Z AUTO 36013G19KT 10SM OVC017 06/03 A3002 RMK AO2 T00600030
Loading
Personal Weather Stations






























Interactive Weather Map
Tropical Storm Tracking
New forecast layout! Learn more

10-Day Weather Forecast

Advertisements
Track Severe Weather on mobile